Time;durP1;ratioP1;P1;durP2;ratioP2;P2;SDS_P1;SDS_P2;PMS_P1;PMS_P2;Temp;Humidity;BMP_temperature;BMP_pressure;BME280_temperature;BME280_humidity;BME280_pressure;Samples;Min_cycle;Max_cycle;Signal;HPM_P1;HPM_P2
2023/05/05 00:00:02;;;;;;;5.47;3.33;;;;;;;24.00;40.49;100125.13;4361648;32;34060;-63
2023/05/05 00:02:31;;;;;;;5.57;2.83;;;;;;;24.00;40.49;100118.84;4361782;32;33378;-63
2023/05/05 00:04:59;;;;;;;4.65;3.10;;;;;;;24.00;40.47;100125.13;4361895;32;34319;-63
2023/05/05 00:07:26;;;;;;;4.47;3.17;;;;;;;24.01;40.49;100132.25;4361694;32;33541;-62
2023/05/05 00:09:54;;;;;;;5.28;3.30;;;;;;;24.00;40.51;100129.75;4361980;32;33724;-62
2023/05/05 00:12:21;;;;;;;5.10;3.12;;;;;;;24.00;40.52;100124.31;4361784;32;34870;-63
2023/05/05 00:14:49;;;;;;;5.05;3.12;;;;;;;23.99;40.51;100120.75;4361710;32;34180;-62
2023/05/05 00:17:17;;;;;;;4.75;3.10;;;;;;;23.99;40.51;100128.91;4361645;32;33812;-63
2023/05/05 00:19:45;;;;;;;4.72;3.05;;;;;;;23.99;40.54;100119.91;4361607;32;33940;-63
2023/05/05 00:22:13;;;;;;;4.93;2.95;;;;;;;23.99;40.59;100125.37;4361343;32;34083;-62
2023/05/05 00:24:40;;;;;;;4.37;2.90;;;;;;;23.99;40.52;100120.75;4361467;32;34649;-63
2023/05/05 00:27:09;;;;;;;4.62;2.97;;;;;;;24.00;40.55;100124.31;4360775;32;33669;-62
2023/05/05 00:29:37;;;;;;;5.97;3.05;;;;;;;23.99;40.67;100112.56;4361310;32;33938;-63
2023/05/05 00:32:05;;;;;;;4.03;2.70;;;;;;;24.00;40.70;100116.94;4361518;32;33668;-63
2023/05/05 00:34:33;;;;;;;6.07;3.60;;;;;;;24.01;40.66;100110.44;4361447;32;34929;-62
2023/05/05 00:37:00;;;;;;;4.90;3.15;;;;;;;24.01;40.70;100115.88;4361628;32;33544;-63
2023/05/05 00:39:28;;;;;;;4.65;3.05;;;;;;;24.02;40.76;100114.03;4347676;32;33744;-62
2023/05/05 00:41:56;;;;;;;4.10;2.90;;;;;;;24.02;40.72;100117.59;4361363;32;33987;-62
2023/05/05 00:44:40;;;;;;;5.55;3.08;;;;;;;24.03;40.73;100110.25;4361528;32;34332;-63
2023/05/05 00:47:08;;;;;;;5.35;3.00;;;;;;;24.04;40.70;100115.44;4361345;32;33770;-62
2023/05/05 00:49:35;;;;;;;5.60;2.78;;;;;;;24.03;40.63;100112.97;4361418;32;33571;-63
2023/05/05 00:52:03;;;;;;;6.55;3.00;;;;;;;24.01;40.58;100110.44;4361445;32;34744;-62
2023/05/05 00:54:32;;;;;;;5.70;3.28;;;;;;;24.02;40.58;100108.56;4347774;32;34115;-63
2023/05/05 00:57:01;;;;;;;5.45;3.10;;;;;;;24.02;40.60;100109.41;4347989;32;33542;-63
2023/05/05 00:59:32;;;;;;;5.07;2.75;;;;;;;24.01;40.63;100102.25;4348090;32;34146;-62
2023/05/05 01:01:59;;;;;;;5.43;3.10;;;;;;;24.01;40.65;100102.25;4360830;32;34606;-63
2023/05/05 01:04:27;;;;;;;5.03;2.92;;;;;;;24.01;40.65;100104.97;4361191;32;34285;-63
2023/05/05 01:07:02;;;;;;;4.10;2.70;;;;;;;24.00;40.69;100100.59;4361399;32;34376;-63
2023/05/05 01:09:36;;;;;;;5.87;3.30;;;;;;;24.01;40.74;100104.16;4347493;32;34534;-63
2023/05/05 01:12:06;;;;;;;4.15;2.65;;;;;;;24.01;40.77;100093.25;4361052;32;33670;-63
2023/05/05 01:14:46;;;;;;;4.50;2.85;;;;;;;24.00;40.79;100095.16;4347521;32;34314;-63
2023/05/05 01:17:44;;;;;;;4.45;2.80;;;;;;;24.01;40.80;100098.69;4348011;32;33479;-62
2023/05/05 01:20:22;;;;;;;5.28;2.97;;;;;;;24.00;40.79;100100.59;4337626;32;34107;-62
2023/05/05 01:23:05;;;;;;;6.05;3.05;;;;;;;23.99;40.84;100093.50;4347942;32;33620;-62
2023/05/05 01:25:48;;;;;;;5.95;2.72;;;;;;;23.98;40.84;100093.72;4336678;32;34111;-63
2023/05/05 01:28:42;;;;;;;4.07;2.78;;;;;;;24.00;40.81;100095.16;4347410;32;33523;-62
2023/05/05 01:31:31;;;;;;;3.90;2.70;;;;;;;23.98;40.92;100096.44;4347473;32;33789;-62
2023/05/05 01:34:00;;;;;;;5.37;3.35;;;;;;;23.98;40.95;100101.91;4347652;32;33966;-62
2023/05/05 01:36:41;;;;;;;3.95;2.75;;;;;;;23.95;40.97;100095.00;4335486;32;34261;-62
2023/05/05 01:39:11;;;;;;;4.07;2.92;;;;;;;23.95;40.96;100095.00;4336705;32;33431;-63
2023/05/05 01:41:44;;;;;;;3.83;2.75;;;;;;;23.96;40.96;100091.19;4347375;32;34792;-61
2023/05/05 01:44:12;;;;;;;3.85;2.87;;;;;;;23.96;40.95;100099.38;4347108;32;34144;-62
2023/05/05 01:46:40;;;;;;;4.30;2.78;;;;;;;23.97;40.87;100092.88;4347359;32;35117;-62
2023/05/05 01:49:08;;;;;;;6.50;2.90;;;;;;;23.98;40.88;100094.56;4360566;32;34293;-63
2023/05/05 01:51:35;;;;;;;5.68;2.80;;;;;;;23.98;40.80;100094.56;4335287;32;34080;-63
2023/05/05 01:54:04;;;;;;;4.78;2.87;;;;;;;23.97;40.79;100090.16;4346126;32;34926;-63
2023/05/05 01:56:32;;;;;;;4.95;3.12;;;;;;;23.96;40.85;100091.19;4362630;32;34524;-63
2023/05/05 01:59:00;;;;;;;4.20;2.83;;;;;;;23.96;40.91;100091.19;4348948;32;34290;-62
2023/05/05 02:01:28;;;;;;;5.95;2.92;;;;;;;23.96;40.98;100090.38;4337163;32;34616;-62
2023/05/05 02:03:56;;;;;;;9.27;2.83;;;;;;;23.95;41.01;100086.81;4346445;33;33912;-62
2023/05/05 02:06:23;;;;;;;4.65;2.72;;;;;;;23.94;41.04;100087.87;4347868;33;33817;-62
2023/05/05 02:08:51;;;;;;;4.35;2.55;;;;;;;23.95;41.02;100089.53;4346654;33;33661;-63
2023/05/05 02:11:20;;;;;;;5.53;2.80;;;;;;;23.95;41.01;100086.81;4346427;33;34015;-62
2023/05/05 02:13:48;;;;;;;7.62;2.80;;;;;;;23.96;41.04;100087.63;4346530;33;34137;-63
2023/05/05 02:16:16;;;;;;;7.20;2.85;;;;;;;23.96;41.06;100085.75;4346512;33;33977;-63
2023/05/05 02:18:43;;;;;;;5.70;3.03;;;;;;;23.96;41.08;100082.19;4346353;33;34466;-63
2023/05/05 02:21:13;;;;;;;5.35;2.80;;;;;;;23.96;41.09;100084.91;4358798;32;34975;-62
2023/05/05 02:23:40;;;;;;;4.30;2.97;;;;;;;23.95;41.06;100088.69;4346502;33;34325;-63
2023/05/05 02:26:08;;;;;;;4.05;2.80;;;;;;;23.97;41.03;100089.31;4346178;33;33947;-63
2023/05/05 02:29:01;;;;;;;5.20;2.90;;;;;;;23.96;41.01;100084.91;4346432;33;33937;-63
2023/05/05 02:31:28;;;;;;;8.15;2.97;;;;;;;23.98;40.96;100078.19;4346363;33;33938;-63
2023/05/05 02:33:57;;;;;;;5.62;2.70;;;;;;;23.96;40.98;100085.75;4358692;32;34577;-63
2023/05/05 02:36:27;;;;;;;3.90;2.65;;;;;;;23.93;41.06;100084.31;4346550;33;34358;-63
2023/05/05 02:39:05;;;;;;;5.37;2.97;;;;;;;23.93;41.11;100078.88;4334527;33;33635;-62
2023/05/05 02:41:33;;;;;;;5.00;3.00;;;;;;;23.94;41.12;100082.41;4358719;32;34666;-63
2023/05/05 02:44:02;;;;;;;4.83;3.17;;;;;;;23.93;41.10;100084.31;4334549;33;34953;-63
2023/05/05 02:46:30;;;;;;;4.43;2.60;;;;;;;23.93;41.10;100084.31;4334444;33;34309;-63
2023/05/05 02:48:58;;;;;;;4.47;2.65;;;;;;;23.92;41.13;100082.66;4334055;33;34526;-62
2023/05/05 02:51:26;;;;;;;4.18;2.60;;;;;;;23.92;41.08;100085.38;4347676;33;34005;-62
2023/05/05 02:53:55;;;;;;;5.62;3.17;;;;;;;23.92;41.06;100085.38;4347759;33;34248;-63
2023/05/05 02:56:39;;;;;;;4.15;2.33;;;;;;;23.90;41.10;100079.31;4347674;33;34585;-63
2023/05/05 02:59:18;;;;;;;4.45;2.60;;;;;;;23.91;41.12;100086.41;4346512;33;33881;-63
2023/05/05 03:01:52;;;;;;;4.55;2.72;;;;;;;23.90;41.14;100075.75;4347558;33;34780;-63
2023/05/05 03:04:47;;;;;;;5.43;2.85;;;;;;;23.90;41.09;100075.75;4361693;32;33984;-63
2023/05/05 03:07:43;;;;;;;4.78;2.70;;;;;;;23.92;41.12;100079.94;4349011;32;34226;-63
2023/05/05 03:10:20;;;;;;;4.10;2.87;;;;;;;23.90;41.18;100081.19;4354625;32;33987;-62
2023/05/05 03:12:55;;;;;;;4.05;2.60;;;;;;;23.91;41.13;100086.41;4349158;32;33966;-63
2023/05/05 03:15:27;;;;;;;4.05;2.70;;;;;;;23.90;41.18;100082.03;4337414;32;34748;-64
2023/05/05 03:17:55;;;;;;;5.95;2.50;;;;;;;23.91;41.15;100082.84;4348980;32;34326;-63
2023/05/05 03:20:22;;;;;;;6.20;2.75;;;;;;;23.91;41.14;100078.22;4362334;32;33246;-63
2023/05/05 03:22:50;;;;;;;4.05;2.40;;;;;;;23.92;41.19;100081.78;4348813;32;34155;-63
2023/05/05 03:25:18;;;;;;;4.53;2.80;;;;;;;23.93;41.21;100083.47;4362050;32;35228;-62
2023/05/05 03:27:46;;;;;;;6.80;2.80;;;;;;;23.91;41.19;100078.22;4362357;32;34774;-63
2023/05/05 03:30:15;;;;;;;5.75;2.72;;;;;;;23.92;41.15;100082.66;4362397;32;33842;-63
2023/05/05 03:32:45;;;;;;;4.32;2.40;;;;;;;23.93;41.15;100080.75;4362252;32;34777;-63
2023/05/05 03:35:13;;;;;;;5.55;2.58;;;;;;;23.92;41.21;100079.06;4348745;32;34320;-64
2023/05/05 03:37:41;;;;;;;4.40;2.22;;;;;;;23.93;41.18;100092.50;4361818;32;35044;-63
2023/05/05 03:40:09;;;;;;;5.22;2.83;;;;;;;23.94;41.22;100082.41;4362281;32;33618;-63
2023/05/05 03:42:37;;;;;;;5.30;2.40;;;;;;;23.93;41.21;100087.03;4361953;32;35371;-63
2023/05/05 03:45:05;;;;;;;4.93;2.80;;;;;;;23.94;41.15;100085.16;4361848;32;33888;-62
2023/05/05 03:47:33;;;;;;;5.25;2.47;;;;;;;23.94;41.14;100085.16;4361964;32;34288;-63
2023/05/05 03:50:00;;;;;;;3.85;2.50;;;;;;;23.94;41.13;100082.41;4362319;32;33895;-63
2023/05/05 03:52:29;;;;;;;5.28;2.40;;;;;;;23.94;41.17;100087.87;4361232;32;35012;-63
2023/05/05 03:54:56;;;;;;;4.15;2.20;;;;;;;23.93;41.24;100092.50;4359706;32;33214;-62
2023/05/05 03:57:24;;;;;;;4.12;2.45;;;;;;;23.93;41.16;100091.66;4361860;32;34207;-63
2023/05/05 03:59:52;;;;;;;6.28;2.33;;;;;;;23.93;41.07;100097.13;4361554;32;33751;-62
2023/05/05 04:02:20;;;;;;;3.15;2.35;;;;;;;23.95;41.05;100099.59;4361994;32;34099;-63
2023/05/05 04:04:48;;;;;;;4.18;2.40;;;;;;;23.95;41.05;100105.06;4362135;32;34082;-62
2023/05/05 04:07:16;;;;;;;6.78;3.17;;;;;;;23.95;41.01;100105.88;4361664;32;34972;-63
2023/05/05 04:09:44;;;;;;;7.40;2.85;;;;;;;23.95;41.27;100099.59;4361583;32;34191;-63
2023/05/05 04:12:12;;;;;;;7.07;3.00;;;;;;;23.95;41.22;100105.06;4362093;32;34801;-62
2023/05/05 04:14:39;;;;;;;5.15;2.62;;;;;;;23.95;41.28;100103.16;4361232;32;34090;-63
2023/05/05 04:17:07;;;;;;;8.10;3.00;;;;;;;23.95;41.34;100103.16;4361981;32;35047;-63
2023/05/05 04:19:35;;;;;;;7.07;2.90;;;;;;;23.95;41.35;100096.88;4362068;32;33695;-63
2023/05/05 04:22:03;;;;;;;6.78;2.72;;;;;;;23.94;41.33;100101.50;4361811;32;33528;-63
2023/05/05 04:24:30;;;;;;;8.50;3.20;;;;;;;23.93;41.27;100097.94;4362031;32;33779;-63
2023/05/05 04:26:58;;;;;;;11.50;3.17;;;;;;;23.93;41.26;100097.94;4348220;32;34324;-63
2023/05/05 04:29:26;;;;;;;6.97;3.28;;;;;;;23.93;41.25;100105.28;4361614;32;33911;-63
2023/05/05 04:31:54;;;;;;;11.27;3.10;;;;;;;23.92;41.11;100099.00;4358790;32;34070;-62
2023/05/05 04:34:22;;;;;;;7.25;2.75;;;;;;;23.91;41.05;100101.94;4359539;32;34211;-63
2023/05/05 04:36:50;;;;;;;7.03;2.83;;;;;;;23.91;41.05;100108.22;4359701;32;33929;-62
2023/05/05 04:39:18;;;;;;;7.32;2.50;;;;;;;23.92;41.03;100111.78;4345386;32;34120;-63
2023/05/05 04:41:46;;;;;;;10.75;3.05;;;;;;;23.91;41.01;100107.38;4359701;32;33937;-63
2023/05/05 04:44:14;;;;;;;8.63;3.12;;;;;;;23.90;40.99;100109.28;4359609;32;35148;-63
2023/05/05 04:46:42;;;;;;;5.05;2.50;;;;;;;23.89;40.99;100118.53;4360725;32;33806;-63
2023/05/05 04:49:09;;;;;;;4.32;2.70;;;;;;;23.90;40.97;100113.91;4361409;32;33625;-63
2023/05/05 04:51:40;;;;;;;5.07;2.50;;;;;;;23.89;40.95;100117.69;4361437;32;33701;-63
2023/05/05 04:54:08;;;;;;;12.37;2.65;;;;;;;23.89;40.92;100125.88;4360560;32;34155;-63
2023/05/05 04:56:35;;;;;;;5.12;2.28;;;;;;;23.89;40.87;100123.13;4360634;32;35157;-63
2023/05/05 04:59:03;;;;;;;6.80;3.00;;;;;;;23.89;40.84;100123.13;4361373;32;33712;-63
2023/05/05 05:01:31;;;;;;;10.05;2.92;;;;;;;23.89;40.85;100123.13;4361394;32;33900;-62
2023/05/05 05:03:58;;;;;;;7.00;2.50;;;;;;;23.88;40.84;100124.19;4361020;32;34270;-63
2023/05/05 05:06:26;;;;;;;4.70;2.30;;;;;;;23.88;40.83;100124.19;4361147;32;34946;-63
2023/05/05 05:08:53;;;;;;;4.95;2.53;;;;;;;23.87;40.83;100125.22;4361190;32;33865;-63
2023/05/05 05:11:21;;;;;;;5.93;2.53;;;;;;;23.88;40.81;100121.47;4361033;32;34215;-63
2023/05/05 05:13:49;;;;;;;3.55;2.30;;;;;;;23.87;40.78;100127.97;4361128;32;33757;-63
2023/05/05 05:16:16;;;;;;;9.43;2.53;;;;;;;23.87;40.77;100130.69;4360991;32;33856;-63
2023/05/05 05:18:46;;;;;;;4.22;2.37;;;;;;;23.86;40.75;100135.31;4360939;32;33744;-62
2023/05/05 05:21:14;;;;;;;7.22;2.58;;;;;;;23.87;40.72;100136.97;4361129;32;34335;-63
2023/05/05 05:23:41;;;;;;;4.95;2.58;;;;;;;23.86;40.72;100129.84;4360881;32;34033;-63
2023/05/05 05:26:09;;;;;;;4.85;2.50;;;;;;;23.86;40.70;100132.56;4362159;32;34259;-63
2023/05/05 05:28:37;;;;;;;5.30;2.60;;;;;;;23.85;40.68;100128.19;4349808;32;33726;-63
2023/05/05 05:31:05;;;;;;;4.30;2.47;;;;;;;23.86;40.68;100134.47;4363178;32;34091;-63
2023/05/05 05:33:33;;;;;;;6.50;2.83;;;;;;;23.87;40.66;100141.59;4362909;32;34361;-63
2023/05/05 05:36:00;;;;;;;4.80;2.25;;;;;;;23.85;40.65;100136.38;4362811;32;34305;-62
2023/05/05 05:38:28;;;;;;;4.78;2.60;;;;;;;23.85;40.64;100146.44;4362935;32;33614;-62
2023/05/05 05:40:56;;;;;;;8.68;2.70;;;;;;;23.85;40.63;100144.53;4362563;32;34109;-63
2023/05/05 05:43:23;;;;;;;6.32;2.20;;;;;;;23.85;40.62;100152.72;4363002;32;34606;-63
2023/05/05 05:45:51;;;;;;;4.28;2.30;;;;;;;23.85;40.60;100146.44;4362796;32;34077;-63
2023/05/05 05:48:20;;;;;;;5.78;2.50;;;;;;;23.85;40.57;100152.72;4356937;32;34492;-63
2023/05/05 05:50:48;;;;;;;3.50;2.35;;;;;;;23.85;40.56;100149.16;4358356;32;34167;-63
2023/05/05 05:53:16;;;;;;;8.75;2.90;;;;;;;23.85;40.57;100154.59;4362544;32;34249;-63
2023/05/05 05:55:45;;;;;;;5.28;2.85;;;;;;;23.85;40.55;100154.59;4362560;32;34281;-63
2023/05/05 05:58:13;;;;;;;5.53;2.70;;;;;;;23.84;40.55;100158.41;4362696;32;33712;-63
2023/05/05 06:00:41;;;;;;;5.57;2.47;;;;;;;23.86;40.54;100161.72;4362678;32;34686;-63
2023/05/05 06:03:09;;;;;;;6.15;2.72;;;;;;;23.84;40.53;100153.78;4362399;32;34138;-63
2023/05/05 06:05:37;;;;;;;4.72;2.60;;;;;;;23.84;40.53;100145.59;4362969;32;34140;-63
2023/05/05 06:08:04;;;;;;;4.20;2.15;;;;;;;23.84;40.51;100151.06;4362619;32;33700;-63
2023/05/05 06:10:32;;;;;;;5.43;2.35;;;;;;;23.85;40.49;100154.59;4362739;32;34117;-63
2023/05/05 06:13:01;;;;;;;4.62;2.47;;;;;;;23.84;40.47;100148.31;4348803;32;34248;-64
2023/05/05 06:15:29;;;;;;;4.60;2.22;;;;;;;23.84;40.47;100144.78;4362804;32;34385;-64
2023/05/05 06:17:58;;;;;;;4.80;2.55;;;;;;;23.84;40.46;100147.50;4362865;32;34099;-63
2023/05/05 06:20:26;;;;;;;5.62;2.40;;;;;;;23.85;40.44;100147.25;4362879;32;33622;-63
2023/05/05 06:22:54;;;;;;;5.10;2.50;;;;;;;23.85;40.44;100140.97;4362391;32;34122;-63
2023/05/05 06:25:22;;;;;;;3.78;2.12;;;;;;;23.84;40.43;100142.03;4362685;32;34278;-63
2023/05/05 06:27:49;;;;;;;4.43;2.50;;;;;;;23.83;40.43;100143.94;4362722;32;34712;-63
2023/05/05 06:30:17;;;;;;;4.75;2.28;;;;;;;23.84;40.42;100148.31;4362338;32;34063;-63
2023/05/05 06:32:44;;;;;;;4.93;2.37;;;;;;;23.84;40.42;100140.16;4362491;32;33783;-63
2023/05/05 06:35:12;;;;;;;4.75;2.30;;;;;;;23.84;40.40;100137.44;4362473;32;34295;-63
2023/05/05 06:37:39;;;;;;;4.00;1.95;;;;;;;23.85;40.38;100135.53;4362017;32;33873;-63
2023/05/05 06:40:09;;;;;;;4.50;2.50;;;;;;;23.85;40.38;100135.53;4349025;32;34164;-64
2023/05/05 06:42:36;;;;;;;3.47;2.20;;;;;;;23.83;40.39;100137.66;4362295;32;35160;-63
2023/05/05 06:45:07;;;;;;;3.75;2.22;;;;;;;23.84;40.36;100136.59;4362508;32;34246;-63
2023/05/05 06:47:35;;;;;;;4.72;2.47;;;;;;;23.85;40.35;100135.53;4362299;32;33758;-63
2023/05/05 06:50:02;;;;;;;6.57;2.40;;;;;;;23.84;40.35;100137.44;4362364;32;33995;-63
2023/05/05 06:52:30;;;;;;;4.07;2.17;;;;;;;23.83;40.35;100138.50;4362222;32;35057;-63
2023/05/05 06:54:58;;;;;;;2.87;1.90;;;;;;;23.84;40.35;100136.59;4362231;32;35425;-63
2023/05/05 06:57:25;;;;;;;4.43;2.25;;;;;;;23.83;40.35;100141.22;4362397;32;34549;-63
2023/05/05 06:59:53;;;;;;;5.05;2.55;;;;;;;23.85;40.34;100139.09;4362138;32;34761;-63
2023/05/05 07:02:20;;;;;;;4.30;2.47;;;;;;;23.84;40.35;100144.78;4361952;32;34093;-63
2023/05/05 07:04:49;;;;;;;3.65;2.25;;;;;;;23.84;40.35;100142.88;4362296;32;34396;-63
2023/05/05 07:07:17;;;;;;;3.75;2.20;;;;;;;23.84;40.35;100142.03;4362069;32;33627;-63
2023/05/05 07:09:45;;;;;;;3.45;2.03;;;;;;;23.84;40.37;100137.44;4348882;32;34872;-63
2023/05/05 07:12:12;;;;;;;3.92;2.30;;;;;;;23.83;40.39;100137.66;4362190;32;34096;-63
2023/05/05 07:14:39;;;;;;;6.78;2.50;;;;;;;23.83;40.38;100138.50;4361791;32;34371;-63
2023/05/05 07:17:07;;;;;;;5.15;2.00;;;;;;;23.82;40.38;100139.53;4362141;32;33932;-63
2023/05/05 07:19:34;;;;;;;4.57;2.10;;;;;;;23.84;40.38;100142.03;4362364;32;34270;-62
2023/05/05 07:22:02;;;;;;;4.37;2.10;;;;;;;23.84;40.39;100140.16;4361807;32;34952;-62
2023/05/05 07:24:29;;;;;;;3.70;1.95;;;;;;;23.84;40.41;100136.59;4362213;32;34749;-62
2023/05/05 07:26:58;;;;;;;5.68;2.42;;;;;;;23.84;40.40;100136.59;4362088;32;33252;-62
2023/05/05 07:29:25;;;;;;;4.72;2.40;;;;;;;23.84;40.39;100133.88;4361950;32;34186;-62
2023/05/05 07:31:53;;;;;;;4.10;2.25;;;;;;;23.85;40.39;100127.34;4362033;32;34041;-62
2023/05/05 07:34:20;;;;;;;4.65;2.37;;;;;;;23.86;40.39;100137.19;4362024;32;34980;-62
2023/05/05 07:36:48;;;;;;;3.03;2.10;;;;;;;23.86;40.39;100137.19;4361928;32;33828;-62
2023/05/05 07:39:17;;;;;;;5.40;2.40;;;;;;;23.86;40.42;100148.09;4348907;32;34207;-62
2023/05/05 07:41:44;;;;;;;6.87;2.40;;;;;;;23.87;40.40;100145.13;4361967;32;33727;-62
2023/05/05 07:44:12;;;;;;;5.68;2.47;;;;;;;23.87;40.42;100147.88;4361845;32;34331;-62
2023/05/05 07:46:40;;;;;;;6.15;2.40;;;;;;;23.87;40.44;100141.59;4362068;32;33708;-62
2023/05/05 07:49:08;;;;;;;3.37;2.25;;;;;;;23.89;40.48;100139.50;4361061;32;33932;-62
2023/05/05 07:51:35;;;;;;;3.97;2.30;;;;;;;23.89;40.45;100144.94;4362172;32;34110;-62
2023/05/05 07:54:03;;;;;;;7.12;2.42;;;;;;;23.88;40.46;100140.56;4348476;32;34904;-62
2023/05/05 07:56:30;;;;;;;4.80;2.55;;;;;;;23.88;40.43;100146.00;4348507;32;34426;-62
2023/05/05 07:58:58;;;;;;;4.60;2.30;;;;;;;23.89;40.42;100142.22;4348319;32;34658;-63
2023/05/05 08:01:25;;;;;;;3.80;2.40;;;;;;;23.89;40.40;100147.66;4361814;32;33867;-62
2023/05/05 08:03:53;;;;;;;4.20;2.20;;;;;;;23.88;40.40;100144.09;4361628;32;34273;-62
2023/05/05 08:06:22;;;;;;;5.97;2.67;;;;;;;23.90;40.37;100149.31;4362198;32;33708;-62
2023/05/05 08:08:53;;;;;;;7.37;2.58;;;;;;;23.89;40.39;100147.66;4361919;32;34756;-63
2023/05/05 08:11:20;;;;;;;5.57;2.37;;;;;;;23.89;40.39;100147.66;4360052;32;33544;-62
2023/05/05 08:13:48;;;;;;;5.70;2.55;;;;;;;23.91;40.37;100137.38;4365755;32;34435;-63
2023/05/05 08:16:15;;;;;;;4.85;2.42;;;;;;;23.90;40.38;100146.59;4348060;32;35314;-62
2023/05/05 08:18:43;;;;;;;7.97;2.50;;;;;;;23.90;40.39;100139.25;4361157;32;34029;-63
2023/05/05 08:21:11;;;;;;;7.10;2.50;;;;;;;23.90;40.39;100136.53;4346433;32;34078;-65
2023/05/05 08:23:38;;;;;;;4.53;2.40;;;;;;;23.90;40.41;100136.53;4361944;32;34214;-63
2023/05/05 08:26:06;;;;;;;4.05;2.20;;;;;;;23.91;40.39;100137.38;4346615;32;33617;-64
2023/05/05 08:28:35;;;;;;;5.12;2.58;;;;;;;23.90;40.38;100136.53;4360249;32;34749;-64
2023/05/05 08:31:03;;;;;;;5.35;3.05;;;;;;;23.92;40.36;100139.03;4361768;32;34914;-64
2023/05/05 08:33:31;;;;;;;5.12;2.40;;;;;;;23.91;40.34;100138.19;4360753;32;34055;-64
2023/05/05 08:35:58;;;;;;;6.37;2.50;;;;;;;23.92;40.32;100139.03;4359676;32;33333;-65
2023/05/05 08:38:26;;;;;;;7.30;2.40;;;;;;;23.91;40.28;100138.19;4360224;32;33988;-64
2023/05/05 08:40:53;;;;;;;5.47;2.78;;;;;;;23.91;40.26;100149.09;4359665;32;34907;-63
2023/05/05 08:43:22;;;;;;;4.80;2.53;;;;;;;23.92;40.22;100142.63;4345515;32;34150;-63
2023/05/05 08:45:50;;;;;;;8.05;2.72;;;;;;;23.91;40.21;100140.09;4360890;32;33665;-66
2023/05/05 08:48:21;;;;;;;4.37;2.28;;;;;;;23.91;40.18;100134.63;4360583;32;33441;-66
2023/05/05 08:50:54;;;;;;;7.20;2.78;;;;;;;23.91;40.13;100135.47;4359889;32;34981;-64
2023/05/05 08:53:51;;;;;;;6.37;3.12;;;;;;;23.92;40.11;100139.88;4335091;32;34207;-66
2023/05/05 08:56:19;;;;;;;6.03;2.65;;;;;;;23.94;40.06;100136.94;4360626;32;34547;-66
2023/05/05 08:58:47;;;;;;;5.18;2.95;;;;;;;23.91;40.04;100140.91;4360800;32;34026;-64
2023/05/05 09:01:15;;;;;;;4.65;2.53;;;;;;;23.91;40.04;100134.63;4361164;32;33608;-66
2023/05/05 09:03:46;;;;;;;7.10;3.17;;;;;;;23.91;39.98;100137.38;4346447;32;35081;-66
2023/05/05 09:06:13;;;;;;;4.60;2.90;;;;;;;23.91;39.98;100131.91;4357041;32;33253;-66
2023/05/05 09:08:41;;;;;;;5.15;2.80;;;;;;;23.92;39.89;100128.13;4360352;32;34792;-66
2023/05/05 09:11:09;;;;;;;6.20;3.05;;;;;;;23.91;39.88;100126.47;4323700;32;32385;-67
2023/05/05 09:13:36;;;;;;;5.78;2.90;;;;;;;23.91;39.85;100119.13;4348075;32;35117;-66
2023/05/05 09:16:21;;;;;;;5.97;3.10;;;;;;;23.91;39.81;100121.00;4346084;33;33662;-66
2023/05/05 09:18:49;;;;;;;4.75;2.80;;;;;;;23.90;39.78;100122.91;4358065;32;34720;-66
2023/05/05 09:21:24;;;;;;;5.22;2.72;;;;;;;23.91;39.77;100126.47;4360907;32;33796;-66
2023/05/05 09:24:10;;;;;;;4.60;2.50;;;;;;;23.91;39.72;100121.84;4360823;32;34921;-66
2023/05/05 09:26:42;;;;;;;6.78;3.03;;;;;;;23.94;39.65;100115.13;4361044;32;33698;-66
2023/05/05 09:29:20;;;;;;;7.85;2.90;;;;;;;23.91;39.60;100110.09;4360842;32;33962;-66
2023/05/05 09:32:07;;;;;;;4.55;2.78;;;;;;;23.92;39.55;100112.63;4359500;32;35541;-66
2023/05/05 09:34:36;;;;;;;6.93;2.80;;;;;;;23.92;39.51;100104.47;4359886;32;35057;-66
2023/05/05 09:37:04;;;;;;;6.07;3.12;;;;;;;23.91;39.44;100101.94;4360996;32;33761;-66
2023/05/05 09:39:32;;;;;;;7.55;3.55;;;;;;;23.91;39.35;100101.94;4359421;32;34000;-65
2023/05/05 09:42:00;;;;;;;8.05;3.65;;;;;;;23.93;39.18;100102.56;4359027;32;34822;-66
2023/05/05 09:44:35;;;;;;;7.62;3.60;;;;;;;23.93;38.92;100099.84;4335066;32;34280;-66
2023/05/05 09:47:03;;;;;;;6.32;3.50;;;;;;;23.93;39.10;100105.28;4358207;32;33579;-66
2023/05/05 09:49:38;;;;;;;7.35;3.83;;;;;;;23.91;38.85;100097.31;4360612;32;33754;-65
2023/05/05 09:52:15;;;;;;;6.45;3.72;;;;;;;23.92;39.16;100089.97;4360340;32;34010;-66
2023/05/05 09:54:43;;;;;;;7.47;3.75;;;;;;;23.93;38.88;100097.13;4360228;32;34184;-65
2023/05/05 09:57:27;;;;;;;6.95;3.70;;;;;;;23.92;38.62;100090.84;4347112;32;33784;-65
2023/05/05 10:00:01;;;;;;;6.78;3.50;;;;;;;23.93;38.66;100089.75;4359661;32;33883;-64
2023/05/05 10:02:33;;;;;;;5.65;3.40;;;;;;;23.92;38.76;100081.78;4359085;32;34284;-64
2023/05/05 10:05:08;;;;;;;6.27;3.83;;;;;;;23.92;38.84;100085.38;4359503;32;34024;-64
2023/05/05 10:07:36;;;;;;;6.87;4.07;;;;;;;23.92;38.77;100085.38;4356491;32;33605;-63
2023/05/05 10:10:05;;;;;;;7.12;3.60;;;;;;;23.92;38.68;100081.78;4358572;32;34070;-64
2023/05/05 10:12:34;;;;;;;6.72;3.42;;;;;;;23.92;38.62;100081.78;4359658;32;34005;-64
2023/05/05 10:15:03;;;;;;;6.65;3.78;;;;;;;23.92;38.54;100077.19;4348225;32;34655;-63
2023/05/05 10:17:32;;;;;;;7.10;3.47;;;;;;;23.91;38.54;100075.50;4360893;32;34623;-64
2023/05/05 10:20:00;;;;;;;5.05;3.40;;;;;;;23.93;38.52;100081.59;4348202;32;33757;-64
2023/05/05 10:22:28;;;;;;;7.62;3.90;;;;;;;23.91;38.55;100071.94;4361113;32;33981;-64
2023/05/05 10:24:57;;;;;;;5.80;3.55;;;;;;;23.91;38.55;100082.84;4359325;32;34780;-64
2023/05/05 10:27:24;;;;;;;4.20;2.92;;;;;;;23.90;38.57;100075.75;4345256;33;33542;-63
2023/05/05 10:30:08;;;;;;;5.87;3.30;;;;;;;23.91;38.58;100071.94;4334346;33;33814;-64
2023/05/05 10:33:04;;;;;;;5.62;3.30;;;;;;;23.93;38.61;100069.84;4359520;32;34042;-64
2023/05/05 10:35:52;;;;;;;8.48;3.40;;;;;;;23.92;38.63;100065.44;4340252;32;34955;-64
2023/05/05 10:38:19;;;;;;;5.30;3.08;;;;;;;23.90;38.65;100065.66;4349121;32;33834;-63
2023/05/05 10:40:47;;;;;;;5.25;3.12;;;;;;;23.89;38.70;100061.28;4347661;32;34864;-63
2023/05/05 10:43:15;;;;;;;5.72;3.00;;;;;;;23.88;38.72;100056.06;4334230;33;33983;-64
2023/05/05 10:45:42;;;;;;;5.05;2.72;;;;;;;23.89;38.75;100055.00;4347591;33;34194;-64
2023/05/05 10:48:17;;;;;;;6.12;3.03;;;;;;;23.89;38.76;100052.28;4333593;33;33324;-63
2023/05/05 10:50:48;;;;;;;4.43;2.90;;;;;;;23.88;38.78;100050.63;4336181;32;33786;-64
2023/05/05 10:53:20;;;;;;;7.22;3.37;;;;;;;23.89;38.80;100049.56;4361390;32;33601;-64
2023/05/05 10:55:57;;;;;;;7.95;3.30;;;;;;;23.88;38.80;100043.28;4349117;32;34161;-63
2023/05/05 10:58:34;;;;;;;5.45;2.97;;;;;;;23.88;38.83;100037.81;4348740;32;34412;-64
2023/05/05 11:01:28;;;;;;;4.70;2.70;;;;;;;23.89;38.84;100036.75;4360968;32;33602;-64
2023/05/05 11:04:15;;;;;;;6.35;2.90;;;;;;;23.91;38.83;100031.06;4361005;32;32450;-64
2023/05/05 11:07:07;;;;;;;5.70;3.12;;;;;;;23.90;38.86;100026.69;4362204;32;34350;-64
2023/05/05 11:10:00;;;;;;;4.90;2.80;;;;;;;23.89;38.90;100020.41;4361976;32;34521;-64
2023/05/05 11:12:29;;;;;;;5.60;2.70;;;;;;;23.89;38.92;100023.13;4361483;32;34884;-62
2023/05/05 11:15:24;;;;;;;6.68;2.80;;;;;;;23.88;38.94;100017.91;4361296;32;34069;-63
2023/05/05 11:17:59;;;;;;;5.55;2.70;;;;;;;23.89;38.94;100014.13;4361997;32;34378;-63
2023/05/05 11:20:34;;;;;;;4.93;3.08;;;;;;;23.86;39.00;100014.56;4360810;32;34414;-63
2023/05/05 11:23:03;;;;;;;4.95;3.03;;;;;;;23.87;39.01;100010.78;4360017;32;34292;-63
2023/05/05 11:25:42;;;;;;;5.32;2.97;;;;;;;23.86;39.01;100007.22;4361616;32;33782;-62
2023/05/05 11:28:14;;;;;;;4.05;2.83;;;;;;;23.86;39.04;100012.69;4360875;32;34845;-61
2023/05/05 11:30:53;;;;;;;5.10;2.90;;;;;;;23.86;39.04;100004.50;4362060;32;33422;-63
2023/05/05 11:33:30;;;;;;;4.37;2.80;;;;;;;23.88;39.03;100004.28;4347195;33;34674;-64
2023/05/05 11:36:05;;;;;;;4.55;2.70;;;;;;;23.87;39.05;100005.31;4350057;32;35013;-63
2023/05/05 11:39:09;;;;;;;5.28;3.05;;;;;;;23.87;39.06;100000.72;4348693;32;35012;-64